This is the latest recevied weather packets stored in our database for station/object MKSRDG. If no packets are shown the sender has not sent any weather packets the latest 10 day(s).
| Time | Temp. | Humidity | Pressure | Rain* | Wind** | Luminosity | Snow |
|---|---|---|---|---|---|---|---|
| 1777780493 | 13.89° C | 86% | 1011.7 hPa | 0 mm | - | 0 W/m² | - |
| 1777779593 | 15.56° C | 76% | 1011.3 hPa | 0 mm | - | 0 W/m² | - |
| 1777778693 | 15° C | 82% | 1011.1 hPa | 0 mm | - | 0 W/m² | - |
| 1777777793 | 14.44° C | 82% | 1011 hPa | 0 mm | - | 11 W/m² | - |
| 1777776893 | 13.33° C | 88% | 1011 hPa | 0.25 mm | - | 30 W/m² | - |
| 1777775993 | 13.89° C | 86% | 1010.8 hPa | 0.76 mm | - | 30 W/m² | - |
| 1777775093 | 15° C | 80% | 1011.1 hPa | 0.76 mm | - | 32 W/m² | - |
| 1777774193 | 13.33° C | 89% | 1011.3 hPa | 0.76 mm | - | 32 W/m² | - |
| 1777773293 | 15° C | 79% | 1010.9 hPa | 0.51 mm | - | 19 W/m² | - |
| 1777772393 | 13.89° C | 88% | 1010.7 hPa | 0 mm | - | 11 W/m² | - |
| 1777771493 | 13.89° C | 89% | 1011.1 hPa | 0.25 mm | - | 5 W/m² | - |
| 1777770593 | 13.33° C | 89% | 1011.5 hPa | 0.25 mm | - | 7 W/m² | - |
| 1777769693 | 13.33° C | 89% | 1012 hPa | 0.25 mm | - | 11 W/m² | - |
| 1777768794 | 13.33° C | 91% | 1011.8 hPa | 0.25 mm | - | 19 W/m² | - |
| 1777767893 | 14.44° C | 88% | 1011.8 hPa | 0 mm | - | 28 W/m² | - |
| 1777766993 | 15° C | 84% | 1011.9 hPa | 0 mm | - | 39 W/m² | - |
| 1777766094 | 15° C | 82% | 1011.9 hPa | 0 mm | - | 178 W/m² | - |
| 1777765194 | 15.56° C | 80% | 1011.3 hPa | 0 mm | - | 396 W/m² | - |
| 1777764294 | 15.56° C | 79% | 1011.5 hPa | 0 mm | - | 408 W/m² | - |
| 1777763394 | 15.56° C | 80% | 1011.7 hPa | 0 mm | - | 446 W/m² | - |
| 1777762494 | 15.56° C | 84% | 1012 hPa | 0 mm | - | 510 W/m² | - |
| 1777761594 | 13.89° C | 83% | 1012.3 hPa | 0 mm | - | 199 W/m² | - |
| 1777760694 | 14.44° C | 81% | 1011.8 hPa | 0 mm | - | 243 W/m² | - |
| 1777759794 | 15.56° C | 80% | 1012.2 hPa | 0 mm | - | 471 W/m² | - |
| 1777758894 | 14.44° C | 84% | 1012.7 hPa | 0 mm | - | 550 W/m² | - |
* Rain latest hour (hover to see other rain measurements)
** Current wind speed in m/s (hover to see current wind gust speed)